TimeCST,TemperatureF,Dew PointF,Humidity,Sea Level PressureIn,VisibilityMPH,Wind Direction,Wind SpeedMPH,Gust SpeedMPH,PrecipitationIn,Events,Conditions,WindDirDegrees,DateUTC
12:53 AM,51.1,48.0,89,30.17,10.0,Calm,Calm,-,0.00,Rain,Light Rain,0,2013-02-12 06:53:00
1:53 AM,51.1,48.0,89,30.13,10.0,NE,8.1,-,0.00,,Overcast,50,2013-02-12 07:53:00
2:53 AM,51.1,46.9,86,30.10,10.0,ENE,8.1,-,0.01,,Overcast,70,2013-02-12 08:53:00
3:53 AM,50.0,46.9,89,30.05,10.0,East,11.5,-,N/A,,Mostly Cloudy,100,2013-02-12 09:53:00
4:53 AM,50.0,46.9,89,30.03,10.0,East,9.2,-,N/A,,Overcast,90,2013-02-12 10:53:00
5:53 AM,51.1,46.9,86,29.99,10.0,East,12.7,-,N/A,,Scattered Clouds,100,2013-02-12 11:53:00
6:53 AM,51.1,46.0,83,29.99,10.0,NE,8.1,-,0.00,,Mostly Cloudy,50,2013-02-12 12:53:00
7:53 AM,50.0,46.9,89,30.02,10.0,East,5.8,-,0.15,Rain,Light Rain,100,2013-02-12 13:53:00
8:53 AM,50.0,48.0,93,29.99,6.0,East,9.2,-,0.14,Rain,Rain,80,2013-02-12 14:53:00
9:39 AM,51.8,48.2,88,29.92,10.0,East,16.1,-,0.02,,Mostly Cloudy,100,2013-02-12 15:39:00
9:53 AM,51.1,46.9,86,29.93,10.0,East,15.0,-,0.02,,Overcast,80,2013-02-12 15:53:00
10:21 AM,51.8,48.2,88,29.93,10.0,East,12.7,20.7,N/A,Thunderstorm,Unknown,100,2013-02-12 16:21:00
10:38 AM,51.8,48.2,88,30.00,2.5,SSE,3.5,-,0.07,Rain-Thunderstorm,Heavy Thunderstorms and Rain,160,2013-02-12 16:38:00
10:53 AM,50.0,48.0,93,29.96,2.0,East,10.4,-,0.20,Rain-Thunderstorm,Rain,90,2013-02-12 16:53:00
10:58 AM,50.0,48.2,94,29.94,4.0,NNE,9.2,-,0.00,Rain-Thunderstorm,Thunderstorms and Rain,20,2013-02-12 16:58:00
11:11 AM,50.0,48.2,94,29.92,4.0,NE,9.2,-,0.05,Rain,Heavy Rain,40,2013-02-12 17:11:00
11:30 AM,50.0,48.2,94,29.90,3.0,NNE,13.8,18.4,0.14,Rain-Thunderstorm,Thunderstorms and Rain,30,2013-02-12 17:30:00
11:33 AM,50.0,48.2,94,29.88,1.5,NNE,15.0,18.4,0.24,Rain-Thunderstorm,Heavy Thunderstorms and Rain,30,2013-02-12 17:33:00
11:40 AM,48.2,48.2,100,29.93,0.8,NNW,5.8,-,0.31,Rain-Thunderstorm,Heavy Thunderstorms and Rain,330,2013-02-12 17:40:00
11:42 AM,48.2,48.2,100,29.92,1.0,North,6.9,-,0.36,Rain-Thunderstorm,Heavy Thunderstorms and Rain,10,2013-02-12 17:42:00
11:44 AM,48.2,48.2,100,29.90,0.8,NE,11.5,-,0.46,Rain-Thunderstorm,Heavy Thunderstorms and Rain,40,2013-02-12 17:44:00
11:51 AM,48.2,48.2,100,29.93,0.8,NNE,6.9,-,0.58,Rain-Thunderstorm,Heavy Thunderstorms and Rain,20,2013-02-12 17:51:00
11:53 AM,48.9,48.0,97,29.94,0.8,NNE,9.2,-,0.60,Rain-Thunderstorm,Heavy Thunderstorms and Rain,20,2013-02-12 17:53:00
12:01 PM,48.2,48.2,100,29.90,1.2,NE,11.5,-,0.08,Rain-Thunderstorm,Heavy Rain,40,2013-02-12 18:01:00
12:14 PM,48.2,48.2,100,29.88,1.2,East,11.5,-,0.29,Rain-Thunderstorm,Heavy Thunderstorms and Rain,90,2013-02-12 18:14:00
12:29 PM,50.0,48.2,94,29.87,0.8,East,13.8,-,0.65,Rain-Thunderstorm,Heavy Rain,80,2013-02-12 18:29:00
12:36 PM,50.0,48.2,94,29.85,2.0,ENE,9.2,-,0.66,Rain-Thunderstorm,Thunderstorms and Rain,60,2013-02-12 18:36:00
12:38 PM,50.0,48.2,94,29.85,4.0,NE,11.5,16.1,0.66,Rain-Thunderstorm,Light Thunderstorms and Rain,50,2013-02-12 18:38:00
12:49 PM,51.8,48.2,88,29.89,9.0,Variable,6.9,-,0.67,Rain-Thunderstorm,Rain,0,2013-02-12 18:49:00
12:53 PM,50.0,48.9,96,29.94,9.0,NW,16.1,20.7,0.67,Rain-Thunderstorm,Light Rain,310,2013-02-12 18:53:00
1:04 PM,53.6,50.0,88,29.86,3.0,ESE,9.2,24.2,0.08,Rain,Heavy Rain,110,2013-02-12 19:04:00
1:17 PM,50.0,48.2,94,29.85,7.0,East,8.1,-,0.09,Rain,Light Rain,80,2013-02-12 19:17:00
1:53 PM,51.1,48.9,92,29.84,8.0,ENE,10.4,-,0.09,Rain,Light Rain,70,2013-02-12 19:53:00
2:44 PM,51.8,48.2,88,29.79,7.0,East,10.4,-,0.05,,Overcast,90,2013-02-12 20:44:00
2:53 PM,51.1,48.9,92,29.83,5.0,NNE,6.9,-,0.05,,Overcast,20,2013-02-12 20:53:00
3:27 PM,50.0,48.2,94,29.80,2.5,NE,9.2,-,0.00,Rain,Light Rain,50,2013-02-12 21:27:00
3:37 PM,50.0,48.2,94,29.81,1.8,North,8.1,-,0.01,Rain,Light Rain,10,2013-02-12 21:37:00
3:46 PM,50.0,48.2,94,29.82,2.0,North,9.2,-,0.01,Rain,Light Rain,350,2013-02-12 21:46:00
3:53 PM,50.0,48.9,96,29.83,2.0,North,9.2,-,0.01,Rain,Light Rain,10,2013-02-12 21:53:00
4:00 PM,50.0,48.2,94,29.82,1.5,North,10.4,-,0.01,Rain,Light Rain,350,2013-02-12 22:00:00
4:28 PM,48.2,46.4,93,29.82,3.0,North,11.5,-,0.05,Rain,Rain,350,2013-02-12 22:28:00
4:53 PM,48.0,46.0,93,29.82,7.0,NE,10.4,-,0.06,Rain,Light Rain,40,2013-02-12 22:53:00
5:53 PM,48.0,46.9,96,29.82,10.0,ENE,5.8,-,0.01,,Overcast,60,2013-02-12 23:53:00
6:53 PM,48.9,46.9,93,29.83,10.0,North,3.5,-,N/A,,Overcast,360,2013-02-13 00:53:00
7:05 PM,48.2,46.4,93,29.81,10.0,Calm,Calm,-,N/A,,Overcast,0,2013-02-13 01:05:00
7:44 PM,48.2,46.4,93,29.81,10.0,NNW,3.5,-,N/A,,Overcast,340,2013-02-13 01:44:00
7:53 PM,48.9,46.9,93,29.83,10.0,Calm,Calm,-,N/A,,Overcast,0,2013-02-13 01:53:00
8:53 PM,48.9,46.9,93,29.85,10.0,WNW,3.5,-,N/A,,Overcast,300,2013-02-13 02:53:00
9:48 PM,48.2,46.4,93,29.85,10.0,West,6.9,-,N/A,,Overcast,280,2013-02-13 03:48:00
9:53 PM,48.9,46.9,93,29.88,10.0,West,9.2,-,N/A,,Overcast,270,2013-02-13 03:53:00
10:53 PM,48.0,46.0,93,29.91,10.0,Variable,6.9,-,N/A,,Overcast,0,2013-02-13 04:53:00
11:53 PM,48.0,46.0,93,29.90,10.0,West,8.1,-,N/A,,Overcast,280,2013-02-13 05:53:00